Nearby METAR Reports

 

NZCH - Christchurch Int, New Zealand
Distance from station: W 10km
Updated: 16 Oct 2018 03:00
Partly cloudy
Partly cloudy
 Wind from N
Wind: N 4 km/h
Temperature: 7°C
Dew Point: 6°C
Humidity: 93%
Barometer: 1030 hPa
Clouds: Partly cloudy
Visibility: 10 km
Cloud details: Partly cloudy 1006 m
2018/10/15 14:00 NZCH 151400Z AUTO 01002KT 9999 SCT033/// 07/06 Q1030 BECMG FM1500 2000 BR